createdAt,value
2023-01-15T00:02:07.129Z,96.10
2023-01-15T00:04:33.936Z,96.10
2023-01-15T00:07:00.729Z,96.30
2023-01-15T00:09:27.549Z,96.10
2023-01-15T00:11:55.105Z,96.20
2023-01-15T00:14:22.047Z,96.30
2023-01-15T00:16:52.435Z,96.30
2023-01-15T00:19:19.177Z,96.30
2023-01-15T00:21:46.032Z,96.30
2023-01-15T00:24:31.625Z,96.40
2023-01-15T00:27:16.806Z,96.40
2023-01-15T00:29:43.746Z,96.20
2023-01-15T00:32:10.507Z,96.20
2023-01-15T00:34:37.287Z,96.20
2023-01-15T00:37:04.207Z,96.30
2023-01-15T00:39:31.015Z,96.10
2023-01-15T00:41:57.834Z,96.10
2023-01-15T00:44:24.554Z,96.10
2023-01-15T00:46:51.460Z,96.20
2023-01-15T00:49:18.477Z,96.10
2023-01-15T00:51:45.268Z,96.10
2023-01-15T00:54:12.009Z,96.10
2023-01-15T00:56:38.837Z,96.10
2023-01-15T00:59:05.893Z,96.20
2023-01-15T01:01:32.960Z,96.30
2023-01-15T01:04:00.007Z,96.40
2023-01-15T01:06:27.138Z,96.30
2023-01-15T01:08:53.901Z,96.20
2023-01-15T01:11:24.063Z,96.10
2023-01-15T01:13:50.955Z,96.00
2023-01-15T01:16:30.751Z,96.00
2023-01-15T01:18:58.524Z,96.00
2023-01-15T01:21:26.153Z,96.10
2023-01-15T01:23:53.074Z,96.20
2023-01-15T01:26:19.955Z,96.10
2023-01-15T01:28:53.498Z,96.10
2023-01-15T01:31:20.701Z,96.20
2023-01-15T01:33:51.431Z,96.40
2023-01-15T01:36:18.914Z,96.20
2023-01-15T01:38:51.378Z,96.20
2023-01-15T01:41:18.908Z,96.10
2023-01-15T01:44:12.066Z,96.10
2023-01-15T01:46:38.784Z,96.20
2023-01-15T01:49:09.883Z,96.20
2023-01-15T01:51:47.959Z,96.30
2023-01-15T01:54:17.136Z,96.20
2023-01-15T01:56:43.977Z,96.20
2023-01-15T01:59:11.711Z,96.20
2023-01-15T02:01:38.661Z,96.30
2023-01-15T02:04:09.596Z,96.40
2023-01-15T02:06:37.532Z,96.40
2023-01-15T02:09:04.967Z,96.30
2023-01-15T02:11:33.024Z,96.30
2023-01-15T02:14:07.457Z,96.20
2023-01-15T02:16:40.669Z,96.20
2023-01-15T02:19:17.896Z,96.10
2023-01-15T02:21:47.747Z,96.20
2023-01-15T02:24:14.435Z,96.30
2023-01-15T02:26:54.093Z,96.40
2023-01-15T02:29:36.855Z,96.40
2023-01-15T02:32:07.673Z,96.40
2023-01-15T02:34:36.599Z,96.30
2023-01-15T02:37:08.336Z,96.20
2023-01-15T02:39:38.093Z,96.30
2023-01-15T02:42:05.850Z,96.30
2023-01-15T02:44:47.800Z,96.40
2023-01-15T02:47:15.938Z,96.20
2023-01-15T02:49:43.880Z,96.20
2023-01-15T02:52:15.823Z,96.40
2023-01-15T02:54:48.916Z,96.40
2023-01-15T02:57:16.358Z,96.30
2023-01-15T02:59:45.376Z,96.30
2023-01-15T03:02:14.625Z,96.20
2023-01-15T03:04:43.868Z,96.30
2023-01-15T03:07:20.261Z,96.30
2023-01-15T03:09:47.899Z,96.20
2023-01-15T03:13:06.253Z,96.20
2023-01-15T03:16:00.307Z,96.20
2023-01-15T03:18:28.631Z,96.40
2023-01-15T03:20:58.844Z,96.40
2023-01-15T03:23:27.352Z,96.30
2023-01-15T03:25:54.185Z,96.20
2023-01-15T03:28:25.652Z,96.20
2023-01-15T03:30:52.565Z,96.20
2023-01-15T03:33:19.645Z,96.30
2023-01-15T03:35:49.069Z,96.20
2023-01-15T03:38:17.976Z,96.20
2023-01-15T03:40:50.729Z,96.30
2023-01-15T03:43:37.887Z,96.30
2023-01-15T03:46:07.731Z,96.40
2023-01-15T03:48:36.652Z,96.50
2023-01-15T03:51:10.208Z,96.40
2023-01-15T03:53:40.077Z,96.20
2023-01-15T03:56:13.266Z,96.30
2023-01-15T03:58:39.992Z,96.20
2023-01-15T04:01:09.750Z,96.10
2023-01-15T04:03:37.561Z,96.20
2023-01-15T04:06:04.769Z,96.20
2023-01-15T04:08:33.779Z,96.30
2023-01-15T04:11:01.584Z,96.30
2023-01-15T04:13:31.250Z,96.20
2023-01-15T04:15:58.746Z,96.20
2023-01-15T04:18:26.031Z,96.20
2023-01-15T04:20:54.749Z,96.20
2023-01-15T04:23:22.202Z,96.20
2023-01-15T04:25:49.141Z,96.20
2023-01-15T04:28:15.880Z,96.20
2023-01-15T04:30:43.727Z,96.20
2023-01-15T04:33:11.327Z,96.30
2023-01-15T04:35:38.345Z,96.20
2023-01-15T04:38:05.075Z,96.30
2023-01-15T04:40:50.395Z,96.40
2023-01-15T04:43:35.433Z,96.30
2023-01-15T04:46:02.340Z,96.50
2023-01-15T04:48:29.194Z,96.30
2023-01-15T04:50:55.978Z,96.30
2023-01-15T04:53:22.785Z,96.20
2023-01-15T04:55:49.493Z,96.20
2023-01-15T04:58:16.224Z,96.10
2023-01-15T05:00:43.001Z,96.20
2023-01-15T05:03:09.775Z,96.50
2023-01-15T05:05:36.623Z,96.20
2023-01-15T05:08:03.438Z,96.20
2023-01-15T05:10:30.189Z,96.20
2023-01-15T05:12:56.935Z,96.20
2023-01-15T05:15:23.785Z,96.20
2023-01-15T05:17:50.490Z,96.20
2023-01-15T05:20:17.314Z,96.20
2023-01-15T05:22:44.158Z,96.20
2023-01-15T05:25:10.882Z,96.30
2023-01-15T05:27:37.677Z,96.20
2023-01-15T05:30:04.788Z,96.20
2023-01-15T05:32:31.532Z,96.40
2023-01-15T05:34:58.247Z,96.40
2023-01-15T05:37:25.291Z,96.30
2023-01-15T05:39:52.028Z,96.30
2023-01-15T05:42:18.770Z,96.30
2023-01-15T05:44:45.611Z,96.20
2023-01-15T05:47:12.409Z,96.30
2023-01-15T05:49:47.792Z,96.20
2023-01-15T05:52:22.592Z,96.20
2023-01-15T05:54:49.652Z,96.10
2023-01-15T05:57:16.484Z,96.10
2023-01-15T05:59:43.313Z,96.20
2023-01-15T06:02:10.079Z,96.20
2023-01-15T06:04:36.847Z,96.30
2023-01-15T06:07:03.596Z,96.20
2023-01-15T06:09:30.346Z,96.20
2023-01-15T06:11:57.229Z,96.20
2023-01-15T06:14:24.084Z,96.20
2023-01-15T06:16:50.908Z,96.20
2023-01-15T06:19:17.799Z,96.20
2023-01-15T06:21:44.660Z,96.20
2023-01-15T06:24:11.761Z,96.20
2023-01-15T06:26:39.619Z,96.10
2023-01-15T06:29:06.508Z,96.20
2023-01-15T06:31:33.472Z,96.30
2023-01-15T06:34:00.297Z,96.30
2023-01-15T06:36:27.405Z,96.30
2023-01-15T06:38:54.635Z,96.20
2023-01-15T06:41:42.737Z,96.30
2023-01-15T06:44:32.142Z,96.30
2023-01-15T06:47:17.267Z,96.20
2023-01-15T06:49:44.014Z,96.20
2023-01-15T06:52:10.796Z,96.20
2023-01-15T06:54:37.751Z,96.20
2023-01-15T06:57:04.532Z,96.20
2023-01-15T06:59:31.401Z,96.30
2023-01-15T07:01:58.435Z,96.20
2023-01-15T07:04:25.186Z,96.30
2023-01-15T07:06:51.928Z,96.20
2023-01-15T07:09:18.830Z,96.30
2023-01-15T07:11:51.754Z,96.30
2023-01-15T07:14:19.616Z,96.30
2023-01-15T07:16:46.440Z,96.30
2023-01-15T07:19:13.514Z,96.30
2023-01-15T07:21:40.879Z,96.50
2023-01-15T07:24:08.038Z,96.50
2023-01-15T07:26:35.084Z,96.40
2023-01-15T07:29:02.117Z,96.30
2023-01-15T07:31:28.983Z,96.20
2023-01-15T07:33:56.927Z,96.40
2023-01-15T07:36:23.983Z,96.40
2023-01-15T07:38:50.925Z,96.30
2023-01-15T07:41:36.010Z,96.30
2023-01-15T07:44:21.788Z,96.30
2023-01-15T07:47:07.213Z,96.20
2023-01-15T07:49:45.763Z,96.20
2023-01-15T07:52:19.838Z,96.30
2023-01-15T07:54:47.070Z,96.10
2023-01-15T07:57:14.867Z,96.10
2023-01-15T07:59:41.684Z,96.30
2023-01-15T08:02:08.520Z,96.30
2023-01-15T08:04:35.653Z,96.30
2023-01-15T08:07:03.582Z,96.20
2023-01-15T08:09:30.418Z,96.20
2023-01-15T08:12:18.919Z,96.20
2023-01-15T08:15:03.991Z,96.30
2023-01-15T08:17:31.147Z,96.30
2023-01-15T08:19:57.869Z,96.30
2023-01-15T08:22:24.625Z,96.30
2023-01-15T08:24:51.437Z,96.50
2023-01-15T08:27:18.329Z,96.60
2023-01-15T08:29:45.074Z,96.60
2023-01-15T08:32:11.965Z,96.50
2023-01-15T08:34:39.446Z,96.40
2023-01-15T08:37:06.217Z,96.30
2023-01-15T08:39:33.264Z,96.40
2023-01-15T08:42:00.120Z,96.40
2023-01-15T08:44:27.080Z,96.30
2023-01-15T08:46:53.896Z,96.40
2023-01-15T08:49:21.123Z,96.40
2023-01-15T08:51:51.589Z,96.40
2023-01-15T08:54:19.700Z,96.30
2023-01-15T08:56:47.071Z,96.30
2023-01-15T08:59:14.097Z,96.30
2023-01-15T09:01:41.153Z,96.30
2023-01-15T09:04:08.164Z,96.40
2023-01-15T09:06:35.196Z,96.40
2023-01-15T09:09:02.034Z,96.40
2023-01-15T09:11:28.874Z,96.50
2023-01-15T09:13:57.688Z,96.50
2023-01-15T09:16:26.750Z,96.60
2023-01-15T09:18:54.043Z,96.60
2023-01-15T09:21:20.898Z,96.70
2023-01-15T09:23:47.723Z,96.60
2023-01-15T09:26:23.351Z,96.60
2023-01-15T09:28:50.346Z,96.60
2023-01-15T09:31:17.081Z,96.60
2023-01-15T09:33:43.797Z,96.60
2023-01-15T09:36:17.977Z,96.60
2023-01-15T09:38:44.897Z,96.60
2023-01-15T09:41:31.583Z,96.50
2023-01-15T09:44:04.478Z,96.40
2023-01-15T09:46:36.727Z,96.40
2023-01-15T09:49:04.575Z,96.60
2023-01-15T09:51:42.945Z,96.60
2023-01-15T09:54:12.464Z,96.60
2023-01-15T09:56:39.616Z,96.90
2023-01-15T09:59:18.776Z,96.60
2023-01-15T10:01:45.713Z,96.60
2023-01-15T10:04:31.615Z,96.60
2023-01-15T10:07:06.007Z,96.60
2023-01-15T10:09:37.483Z,96.60
2023-01-15T10:12:36.722Z,96.70
2023-01-15T10:15:22.240Z,96.70
2023-01-15T10:17:50.507Z,96.60
2023-01-15T10:20:22.320Z,96.60
2023-01-15T10:23:15.297Z,96.60
2023-01-15T10:25:46.732Z,96.70
2023-01-15T10:28:23.844Z,96.60
2023-01-15T10:30:55.162Z,96.60
2023-01-15T10:33:37.267Z,96.60
2023-01-15T10:36:20.044Z,96.60
2023-01-15T10:38:58.797Z,96.70
2023-01-15T10:41:31.874Z,96.70
2023-01-15T10:44:13.685Z,96.60
2023-01-15T10:46:41.095Z,96.70
2023-01-15T10:49:15.732Z,96.70
2023-01-15T10:51:42.612Z,96.70
2023-01-15T10:54:12.252Z,96.70
2023-01-15T10:57:02.234Z,96.70
2023-01-15T10:59:41.192Z,96.70
2023-01-15T11:02:17.672Z,96.70
2023-01-15T11:04:45.731Z,96.70
2023-01-15T11:07:13.780Z,96.50
2023-01-15T11:09:41.769Z,96.70
2023-01-15T11:12:08.460Z,96.70
2023-01-15T11:15:01.097Z,96.80
2023-01-15T11:17:48.953Z,96.70
2023-01-15T11:20:24.897Z,96.80
2023-01-15T11:22:51.832Z,96.70
2023-01-15T11:25:29.764Z,96.70
2023-01-15T11:27:57.589Z,96.60
2023-01-15T11:30:25.969Z,96.60
2023-01-15T11:32:57.872Z,96.60
2023-01-15T11:35:24.773Z,96.60
2023-01-15T11:38:01.662Z,96.50
2023-01-15T11:40:28.496Z,96.60
2023-01-15T11:43:14.033Z,96.70
2023-01-15T11:46:06.300Z,96.70
2023-01-15T11:49:04.926Z,96.70
2023-01-15T11:51:35.688Z,96.70
2023-01-15T11:54:04.154Z,96.80
2023-01-15T11:56:31.954Z,96.80
2023-01-15T11:59:01.292Z,96.70
2023-01-15T12:01:33.443Z,96.70
2023-01-15T12:04:01.553Z,96.80
2023-01-15T12:06:30.199Z,96.70
2023-01-15T12:09:00.235Z,96.80
2023-01-15T12:11:27.556Z,96.80
2023-01-15T12:14:13.166Z,96.70
2023-01-15T12:16:53.195Z,96.80
2023-01-15T12:19:26.950Z,96.80
2023-01-15T12:22:02.746Z,96.80
2023-01-15T12:24:38.733Z,96.80
2023-01-15T12:27:11.329Z,96.80
2023-01-15T12:29:43.134Z,96.70
2023-01-15T12:32:22.322Z,96.70
2023-01-15T12:34:58.980Z,96.70
2023-01-15T12:37:28.366Z,96.90
2023-01-15T12:40:03.338Z,96.80
2023-01-15T12:42:48.559Z,96.70
2023-01-15T12:45:17.388Z,96.80
2023-01-15T12:47:49.641Z,96.80
2023-01-15T12:50:22.814Z,96.80
2023-01-15T12:52:51.387Z,96.70
2023-01-15T12:55:27.729Z,96.70
2023-01-15T12:58:00.612Z,96.70
2023-01-15T13:00:31.049Z,96.70
2023-01-15T13:02:57.850Z,96.70
2023-01-15T13:05:48.041Z,96.70
2023-01-15T13:08:16.236Z,96.70
2023-01-15T13:10:43.148Z,96.60
2023-01-15T13:13:15.288Z,96.70
2023-01-15T13:15:55.424Z,96.70
2023-01-15T13:18:25.424Z,96.70
2023-01-15T13:20:54.008Z,96.70
2023-01-15T13:23:31.121Z,96.80
2023-01-15T13:26:08.047Z,96.80
2023-01-15T13:28:44.186Z,96.80
2023-01-15T13:31:29.649Z,96.70
2023-01-15T13:33:58.784Z,96.70
2023-01-15T13:36:28.998Z,96.80
2023-01-15T13:38:57.626Z,96.80
2023-01-15T13:41:58.514Z,96.70
2023-01-15T13:44:28.224Z,96.70
2023-01-15T13:47:14.710Z,96.80
2023-01-15T13:49:49.711Z,96.80
2023-01-15T13:52:26.548Z,96.80
2023-01-15T13:54:54.496Z,96.80
2023-01-15T13:57:21.308Z,96.80
2023-01-15T13:59:50.763Z,96.70
2023-01-15T14:02:26.259Z,96.80
2023-01-15T14:04:53.726Z,96.80
2023-01-15T14:07:23.723Z,96.80
2023-01-15T14:09:51.157Z,96.70
2023-01-15T14:12:18.052Z,96.70
2023-01-15T14:14:44.789Z,96.70
2023-01-15T14:17:20.791Z,96.70
2023-01-15T14:20:06.283Z,96.80
2023-01-15T14:22:43.968Z,96.80
2023-01-15T14:25:16.818Z,96.90
2023-01-15T14:27:50.723Z,96.80
2023-01-15T14:30:36.440Z,96.80
2023-01-15T14:33:06.451Z,96.80
2023-01-15T14:35:43.899Z,96.80
2023-01-15T14:38:14.090Z,96.70
2023-01-15T14:40:50.165Z,96.80
2023-01-15T14:43:19.360Z,96.80
2023-01-15T14:45:48.314Z,96.70
2023-01-15T14:48:17.961Z,96.70
2023-01-15T14:50:45.157Z,96.70
2023-01-15T14:53:12.358Z,96.80
2023-01-15T14:56:13.014Z,96.70
2023-01-15T14:58:43.586Z,96.80
2023-01-15T15:01:14.707Z,96.80
2023-01-15T15:03:46.038Z,96.80
2023-01-15T15:06:13.940Z,96.80
2023-01-15T15:08:41.203Z,96.80
2023-01-15T15:11:32.633Z,96.80
2023-01-15T15:14:00.313Z,96.80
2023-01-15T15:16:28.580Z,96.80
2023-01-15T15:18:58.690Z,96.80
2023-01-15T15:21:27.563Z,96.70
2023-01-15T15:23:57.235Z,96.80
2023-01-15T15:26:34.662Z,96.80
2023-01-15T15:29:03.296Z,96.80
2023-01-15T15:31:37.342Z,96.80
2023-01-15T15:34:05.988Z,96.80
2023-01-15T15:36:33.901Z,96.80
2023-01-15T15:39:05.421Z,96.80
2023-01-15T15:41:54.481Z,96.90
2023-01-15T15:44:53.200Z,96.90
2023-01-15T15:47:39.323Z,96.80
2023-01-15T15:50:06.348Z,96.80
2023-01-15T15:52:33.569Z,96.70
2023-01-15T15:55:01.215Z,96.80
2023-01-15T15:57:29.508Z,96.80
2023-01-15T15:59:56.512Z,96.90
2023-01-15T16:02:36.246Z,96.90
2023-01-15T16:05:04.797Z,96.90
2023-01-15T16:07:37.505Z,96.90
2023-01-15T16:10:12.705Z,96.90
2023-01-15T16:12:43.745Z,96.90
2023-01-15T16:15:14.473Z,96.80
2023-01-15T16:17:42.072Z,96.90
2023-01-15T16:20:16.716Z,96.90
2023-01-15T16:23:09.587Z,96.90
2023-01-15T16:25:38.720Z,96.80
2023-01-15T16:28:05.615Z,96.90
2023-01-15T16:30:32.858Z,96.80
2023-01-15T16:33:04.930Z,96.80
2023-01-15T16:35:33.772Z,96.80
2023-01-15T16:38:01.541Z,96.80
2023-01-15T16:40:28.456Z,96.90
2023-01-15T16:43:07.169Z,96.90
2023-01-15T16:45:34.565Z,96.80
2023-01-15T16:48:07.431Z,96.90
2023-01-15T16:50:42.322Z,96.90
2023-01-15T16:53:28.838Z,96.90
2023-01-15T16:55:57.200Z,97.00
2023-01-15T16:58:35.970Z,96.80
2023-01-15T17:01:22.836Z,96.80
2023-01-15T17:03:50.272Z,96.80
2023-01-15T17:06:20.567Z,96.90
2023-01-15T17:08:48.826Z,96.80
2023-01-15T17:11:29.961Z,96.80
2023-01-15T17:14:20.292Z,96.90
2023-01-15T17:16:47.072Z,97.00
2023-01-15T17:19:16.518Z,97.00
2023-01-15T17:21:47.392Z,96.90
2023-01-15T17:24:14.536Z,96.90
2023-01-15T17:26:41.404Z,96.80
2023-01-15T17:29:09.355Z,96.90
2023-01-15T17:31:36.614Z,96.90
2023-01-15T17:34:04.043Z,96.90
2023-01-15T17:36:31.255Z,96.90
2023-01-15T17:38:58.054Z,96.80
2023-01-15T17:41:24.953Z,96.80
2023-01-15T17:43:52.101Z,96.80
2023-01-15T17:46:18.943Z,96.90
2023-01-15T17:48:45.735Z,96.90
2023-01-15T17:51:13.823Z,96.90
2023-01-15T17:53:40.677Z,96.90
2023-01-15T17:56:26.303Z,97.00
2023-01-15T17:59:11.448Z,97.00
2023-01-15T18:02:18.598Z,97.00
2023-01-15T18:05:06.137Z,97.00
2023-01-15T18:07:34.001Z,96.90
2023-01-15T18:10:01.445Z,96.90
2023-01-15T18:12:28.353Z,96.80
2023-01-15T18:14:55.153Z,96.90
2023-01-15T18:17:21.890Z,96.90
2023-01-15T18:19:48.660Z,96.90
2023-01-15T18:22:16.189Z,96.90
2023-01-15T18:24:43.078Z,97.00
2023-01-15T18:27:10.063Z,97.00
2023-01-15T18:29:40.201Z,96.90
2023-01-15T18:32:08.541Z,96.80
2023-01-15T18:34:36.076Z,96.80
2023-01-15T18:37:03.334Z,96.80
2023-01-15T18:39:30.756Z,96.90
2023-01-15T18:41:57.849Z,96.90
2023-01-15T18:44:43.972Z,96.80
2023-01-15T18:47:13.008Z,96.90
2023-01-15T18:49:40.632Z,97.00
2023-01-15T18:52:26.680Z,96.90
2023-01-15T18:54:53.561Z,96.90
2023-01-15T18:57:20.670Z,97.00
2023-01-15T18:59:47.879Z,97.00
2023-01-15T19:02:15.457Z,97.00
2023-01-15T19:04:42.309Z,96.90
2023-01-15T19:07:09.637Z,96.90
2023-01-15T19:09:37.372Z,96.90
2023-01-15T19:12:04.676Z,96.90
2023-01-15T19:14:49.965Z,96.90
2023-01-15T19:17:37.436Z,96.90
2023-01-15T19:20:04.920Z,96.90
2023-01-15T19:22:50.307Z,97.00
2023-01-15T19:25:17.618Z,97.00
2023-01-15T19:27:44.470Z,96.90
2023-01-15T19:30:11.480Z,96.90
2023-01-15T19:32:38.302Z,96.90
2023-01-15T19:35:05.449Z,97.00
2023-01-15T19:37:32.534Z,96.90
2023-01-15T19:39:59.327Z,96.90
2023-01-15T19:42:44.470Z,96.90
2023-01-15T19:45:30.245Z,97.00
2023-01-15T19:48:15.287Z,97.00
2023-01-15T19:50:42.815Z,97.00
2023-01-15T19:53:10.325Z,97.00
2023-01-15T19:55:38.156Z,97.00
2023-01-15T19:58:06.397Z,97.00
2023-01-15T20:00:36.918Z,97.00
2023-01-15T20:03:04.959Z,97.00
2023-01-15T20:05:32.845Z,97.00
2023-01-15T20:07:59.912Z,97.00
2023-01-15T20:10:27.644Z,97.00
2023-01-15T20:13:13.331Z,97.00
2023-01-15T20:15:42.668Z,97.00
2023-01-15T20:18:09.813Z,97.00
2023-01-15T20:20:37.161Z,97.00
2023-01-15T20:23:04.926Z,96.90
2023-01-15T20:25:31.690Z,97.00
2023-01-15T20:28:00.743Z,97.10
2023-01-15T20:30:28.281Z,97.00
2023-01-15T20:32:57.773Z,96.90
2023-01-15T20:35:25.780Z,96.90
2023-01-15T20:37:52.672Z,96.90
2023-01-15T20:40:22.188Z,96.90
2023-01-15T20:43:07.754Z,96.90
2023-01-15T20:45:34.875Z,97.00
2023-01-15T20:48:13.980Z,97.00
2023-01-15T20:51:00.624Z,97.00
2023-01-15T20:53:28.910Z,97.00
2023-01-15T20:55:57.662Z,97.00
2023-01-15T20:58:25.136Z,97.00
2023-01-15T21:00:52.486Z,97.00
2023-01-15T21:03:20.730Z,97.10
2023-01-15T21:05:48.020Z,97.00
2023-01-15T21:08:15.180Z,97.00
2023-01-15T21:10:45.050Z,96.90
2023-01-15T21:13:13.273Z,97.00
2023-01-15T21:15:40.514Z,96.90
2023-01-15T21:18:08.179Z,96.90
2023-01-15T21:20:35.133Z,97.00
2023-01-15T21:23:02.055Z,97.00
2023-01-15T21:25:28.897Z,97.00
2023-01-15T21:27:56.104Z,97.00
2023-01-15T21:30:26.069Z,96.90
2023-01-15T21:32:52.938Z,97.00
2023-01-15T21:35:19.866Z,97.00
2023-01-15T21:37:46.690Z,97.00
2023-01-15T21:40:13.628Z,97.00
2023-01-15T21:42:58.814Z,97.00
2023-01-15T21:45:26.322Z,97.00
2023-01-15T21:47:53.135Z,97.00
2023-01-15T21:50:20.723Z,97.00
2023-01-15T21:52:48.484Z,97.00
2023-01-15T21:55:15.316Z,96.90
2023-01-15T21:57:42.201Z,97.00
2023-01-15T22:00:10.527Z,97.00
2023-01-15T22:02:37.639Z,97.00
2023-01-15T22:05:04.903Z,97.10
2023-01-15T22:07:31.722Z,97.00
2023-01-15T22:09:58.435Z,97.00
2023-01-15T22:12:25.252Z,97.00
2023-01-15T22:14:53.841Z,97.00
2023-01-15T22:17:20.774Z,97.10
2023-01-15T22:19:50.654Z,97.10
2023-01-15T22:22:17.652Z,97.10
2023-01-15T22:24:44.362Z,97.10
2023-01-15T22:27:13.958Z,97.10
2023-01-15T22:29:41.660Z,97.10
2023-01-15T22:32:09.745Z,97.10
2023-01-15T22:34:36.541Z,97.10
2023-01-15T22:37:03.281Z,97.10
2023-01-15T22:39:30.362Z,97.10
2023-01-15T22:42:15.648Z,97.10
2023-01-15T22:44:45.221Z,97.00
2023-01-15T22:47:12.167Z,97.10
2023-01-15T22:49:38.924Z,97.00
2023-01-15T22:52:05.687Z,97.10
2023-01-15T22:54:32.466Z,97.10
2023-01-15T22:56:59.298Z,97.00
2023-01-15T22:59:26.039Z,97.40
2023-01-15T23:01:53.002Z,97.10
2023-01-15T23:04:21.530Z,97.10
2023-01-15T23:06:49.155Z,97.10
2023-01-15T23:09:15.874Z,97.00
2023-01-15T23:11:42.966Z,97.10
2023-01-15T23:14:11.547Z,97.10
2023-01-15T23:16:38.268Z,97.10
2023-01-15T23:19:06.200Z,96.90
2023-01-15T23:21:32.942Z,97.00
2023-01-15T23:24:00.649Z,97.00
2023-01-15T23:26:29.433Z,97.10
2023-01-15T23:28:56.174Z,97.10
2023-01-15T23:31:23.364Z,97.00
2023-01-15T23:33:50.450Z,97.00
2023-01-15T23:36:17.211Z,97.00
2023-01-15T23:38:46.536Z,97.00
2023-01-15T23:41:15.116Z,96.90
2023-01-15T23:44:01.222Z,96.90
2023-01-15T23:46:40.302Z,97.00
2023-01-15T23:49:11.123Z,97.00
2023-01-15T23:51:38.324Z,96.90
2023-01-15T23:54:05.476Z,97.00
2023-01-15T23:56:33.226Z,97.00
2023-01-15T23:59:00.049Z,97.10
